createdAt,value
2022-08-03T00:00:19.897Z,81.42
2022-08-03T00:01:19.905Z,81.02
2022-08-03T00:02:19.864Z,81.32
2022-08-03T00:03:19.977Z,80.82
2022-08-03T00:04:19.914Z,81.02
2022-08-03T00:05:19.864Z,80.92
2022-08-03T00:06:19.823Z,80.65
2022-08-03T00:07:19.827Z,80.72
2022-08-03T00:08:19.794Z,80.35
2022-08-03T00:09:19.818Z,80.25
2022-08-03T00:10:19.758Z,80.96
2022-08-03T00:11:27.342Z,80.45
2022-08-03T00:12:19.725Z,80.65
2022-08-03T00:13:19.716Z,80.55
2022-08-03T00:14:19.730Z,80.45
2022-08-03T00:15:19.693Z,80.25
2022-08-03T00:16:22.366Z,81.05
2022-08-03T00:17:19.668Z,80.85
2022-08-03T00:18:19.645Z,80.96
2022-08-03T00:19:19.661Z,81.05
2022-08-03T00:20:19.642Z,81.36
2022-08-03T00:21:22.321Z,81.05
2022-08-03T00:22:19.627Z,81.46
2022-08-03T00:23:19.598Z,81.80
2022-08-03T00:24:19.564Z,81.50
2022-08-03T00:25:19.585Z,81.40
2022-08-03T00:26:21.321Z,80.99
2022-08-03T00:27:19.526Z,81.70
2022-08-03T00:28:19.546Z,81.80
2022-08-03T00:29:19.510Z,81.30
2022-08-03T00:30:19.512Z,82.01
2022-08-03T00:31:40.078Z,81.40
2022-08-03T00:32:19.464Z,81.30
2022-08-03T00:33:19.469Z,81.60
2022-08-03T00:34:24.251Z,81.40
2022-08-03T00:35:37.020Z,81.70
2022-08-03T00:36:21.410Z,81.80
2022-08-03T00:37:19.393Z,81.80
2022-08-03T00:38:19.410Z,82.01
2022-08-03T00:39:19.366Z,81.40
2022-08-03T00:40:19.364Z,81.70
2022-08-03T00:41:26.323Z,81.70
2022-08-03T00:42:19.326Z,81.30
2022-08-03T00:43:19.320Z,81.70
2022-08-03T00:44:19.326Z,81.60
2022-08-03T00:45:19.287Z,81.60
2022-08-03T00:46:25.815Z,82.24
2022-08-03T00:47:19.267Z,82.24
2022-08-03T00:48:29.597Z,81.94
2022-08-03T00:49:19.305Z,81.84
2022-08-03T00:50:19.245Z,81.64
2022-08-03T00:51:22.818Z,81.64
2022-08-03T00:52:19.456Z,82.04
2022-08-03T00:53:19.177Z,82.35
2022-08-03T00:54:19.154Z,82.65
2022-08-03T00:55:19.171Z,82.75
2022-08-03T00:56:22.062Z,82.95
2022-08-03T00:57:19.123Z,83.15
2022-08-03T00:58:19.138Z,82.85
2022-08-03T00:59:19.084Z,82.55
2022-08-03T01:00:19.153Z,82.55
2022-08-03T01:01:33.903Z,82.45
2022-08-03T01:02:19.067Z,82.45
2022-08-03T01:03:19.082Z,82.85
2022-08-03T01:04:19.016Z,82.65
2022-08-03T01:05:19.004Z,83.05
2022-08-03T01:06:31.858Z,82.95
2022-08-03T01:07:18.986Z,82.79
2022-08-03T01:08:18.959Z,83.29
2022-08-03T01:09:18.982Z,83.36
2022-08-03T01:10:18.942Z,82.65
2022-08-03T01:11:22.683Z,83.05
2022-08-03T01:12:18.937Z,83.19
2022-08-03T01:14:01.102Z,82.79
2022-08-03T01:14:22.599Z,82.99
2022-08-03T01:15:18.872Z,83.29
2022-08-03T01:16:36.023Z,83.29
2022-08-03T01:17:18.843Z,83.09
2022-08-03T01:18:18.861Z,83.19
2022-08-03T01:19:18.838Z,83.40
2022-08-03T01:20:18.802Z,83.50
2022-08-03T01:21:33.357Z,83.60
2022-08-03T01:22:18.772Z,83.90
2022-08-03T01:23:18.768Z,83.29
2022-08-03T01:24:18.771Z,83.29
2022-08-03T01:25:18.734Z,83.09
2022-08-03T01:26:25.346Z,82.89
2022-08-03T01:27:18.711Z,82.99
2022-08-03T01:28:18.699Z,83.40
2022-08-03T01:29:18.733Z,83.19
2022-08-03T01:30:18.673Z,83.09
2022-08-03T01:31:20.370Z,83.40
2022-08-03T01:32:58.714Z,83.60
2022-08-03T01:33:18.652Z,83.74
2022-08-03T01:34:18.617Z,83.54
2022-08-03T01:35:18.650Z,83.54
2022-08-03T01:36:22.863Z,83.44
2022-08-03T01:37:18.577Z,83.40
2022-08-03T01:38:18.557Z,83.94
2022-08-03T01:39:18.565Z,83.74
2022-08-03T01:40:18.527Z,83.74
2022-08-03T01:41:33.337Z,83.84
2022-08-03T01:42:18.621Z,84.14
2022-08-03T01:44:27.947Z,83.44
2022-08-03T01:44:34.949Z,83.44
2022-08-03T01:45:18.497Z,83.94
2022-08-03T01:46:25.328Z,83.84
2022-08-03T01:47:18.446Z,83.54
2022-08-03T01:48:18.420Z,84.04
2022-08-03T01:49:18.531Z,83.94
2022-08-03T01:50:18.418Z,83.54
2022-08-03T01:51:21.911Z,83.33
2022-08-03T01:52:18.713Z,83.33
2022-08-03T01:53:18.366Z,83.54
2022-08-03T01:54:18.369Z,83.74
2022-08-03T01:55:18.367Z,84.14
2022-08-03T01:56:25.873Z,84.25
2022-08-03T01:57:18.299Z,84.14
2022-08-03T01:58:18.293Z,83.74
2022-08-03T01:59:18.301Z,83.64
2022-08-03T02:00:18.279Z,84.04
2022-08-03T02:02:32.386Z,84.04
2022-08-03T02:02:38.669Z,83.84
2022-08-03T02:03:18.222Z,83.94
2022-08-03T02:04:18.208Z,84.04
2022-08-03T02:05:18.197Z,84.14
2022-08-03T02:07:01.637Z,84.04
2022-08-03T02:07:18.202Z,83.44
2022-08-03T02:08:18.186Z,84.25
2022-08-03T02:09:18.178Z,84.25
2022-08-03T02:10:23.571Z,83.84
2022-08-03T02:11:32.848Z,84.39
2022-08-03T02:12:18.411Z,84.39
2022-08-03T02:13:18.108Z,84.39
2022-08-03T02:14:18.061Z,84.79
2022-08-03T02:15:18.068Z,84.79
2022-08-03T02:16:32.852Z,84.69
2022-08-03T02:17:18.045Z,84.99
2022-08-03T02:18:18.048Z,85.60
2022-08-03T02:19:18.042Z,85.30
2022-08-03T02:20:18.005Z,85.64
2022-08-03T02:21:56.409Z,85.74
2022-08-03T02:22:18.116Z,85.44
2022-08-03T02:23:17.951Z,85.44
2022-08-03T02:24:17.934Z,85.44
2022-08-03T02:25:17.935Z,85.84
2022-08-03T02:26:24.850Z,85.74
2022-08-03T02:27:17.938Z,85.84
2022-08-03T02:28:17.894Z,85.74
2022-08-03T02:29:17.872Z,85.74
2022-08-03T02:30:17.858Z,85.84
2022-08-03T02:31:21.991Z,85.84
2022-08-03T02:32:18.192Z,86.45
2022-08-03T02:33:17.832Z,86.96
2022-08-03T02:34:17.803Z,86.15
2022-08-03T02:35:17.786Z,86.15
2022-08-03T02:36:18.388Z,85.94
2022-08-03T02:37:17.757Z,85.74
2022-08-03T02:38:17.747Z,85.24
2022-08-03T02:39:17.761Z,85.24
2022-08-03T02:40:17.727Z,84.93
2022-08-03T02:41:25.383Z,85.13
2022-08-03T02:42:17.964Z,85.13
2022-08-03T02:43:17.677Z,85.03
2022-08-03T02:44:17.719Z,84.53
2022-08-03T02:45:17.661Z,85.03
2022-08-03T02:46:39.697Z,85.44
2022-08-03T02:47:17.646Z,85.24
2022-08-03T02:48:17.692Z,85.33
2022-08-03T02:49:41.420Z,85.24
2022-08-03T02:50:17.625Z,85.03
2022-08-03T02:51:32.352Z,84.73
2022-08-03T02:52:17.893Z,85.24
2022-08-03T02:53:17.552Z,85.74
2022-08-03T02:54:17.560Z,85.94
2022-08-03T02:55:17.519Z,85.64
2022-08-03T02:56:32.354Z,85.33
2022-08-03T02:57:17.513Z,85.13
2022-08-03T02:58:17.481Z,85.64
2022-08-03T02:59:17.484Z,85.54
2022-08-03T03:00:19.430Z,85.44
2022-08-03T03:01:28.467Z,85.74
2022-08-03T03:02:17.697Z,85.74
2022-08-03T03:03:17.415Z,85.84
2022-08-03T03:04:17.428Z,85.84
2022-08-03T03:05:56.408Z,85.44
2022-08-03T03:06:38.383Z,85.74
2022-08-03T03:07:17.356Z,86.35
2022-08-03T03:08:18.989Z,86.19
2022-08-03T03:09:17.339Z,85.88
2022-08-03T03:10:17.325Z,85.88
2022-08-03T03:11:32.387Z,85.78
2022-08-03T03:12:17.535Z,86.29
2022-08-03T03:13:17.277Z,85.99
2022-08-03T03:14:17.274Z,86.69
2022-08-03T03:15:17.252Z,86.39
2022-08-03T03:16:27.897Z,86.29
2022-08-03T03:17:17.226Z,86.69
2022-08-03T03:18:21.887Z,86.39
2022-08-03T03:19:17.215Z,86.29
2022-08-03T03:20:29.310Z,87.81
2022-08-03T03:21:23.869Z,86.90
2022-08-03T03:22:17.442Z,87.20
2022-08-03T03:23:17.128Z,87.40
2022-08-03T03:24:17.205Z,87.10
2022-08-03T03:25:17.110Z,86.90
2022-08-03T03:26:31.866Z,86.49
2022-08-03T03:27:17.106Z,87.00
2022-08-03T03:28:17.112Z,86.79
2022-08-03T03:29:17.118Z,86.69
2022-08-03T03:30:17.077Z,86.79
2022-08-03T03:31:20.938Z,86.39
2022-08-03T03:32:17.332Z,86.69
2022-08-03T03:33:17.052Z,86.79
2022-08-03T03:34:17.010Z,87.00
2022-08-03T03:35:16.994Z,87.24
2022-08-03T03:36:25.904Z,87.34
2022-08-03T03:37:16.980Z,86.94
2022-08-03T03:38:16.945Z,86.83
2022-08-03T03:39:16.976Z,87.45
2022-08-03T03:40:16.918Z,87.34
2022-08-03T03:41:23.867Z,87.14
2022-08-03T03:42:17.326Z,87.14
2022-08-03T03:43:16.879Z,86.94
2022-08-03T03:44:16.883Z,87.14
2022-08-03T03:45:16.845Z,87.24
2022-08-03T03:46:27.403Z,87.95
2022-08-03T03:47:16.818Z,87.95
2022-08-03T03:48:16.816Z,87.74
2022-08-03T03:49:16.847Z,87.74
2022-08-03T03:50:16.787Z,87.65
2022-08-03T03:51:31.374Z,87.74
2022-08-03T03:52:17.087Z,87.65
2022-08-03T03:53:16.741Z,87.95
2022-08-03T03:54:16.735Z,87.95
2022-08-03T03:55:16.719Z,87.65
2022-08-03T03:56:27.414Z,88.25
2022-08-03T03:57:16.686Z,87.85
2022-08-03T03:58:16.672Z,87.74
2022-08-03T03:59:16.724Z,87.95
2022-08-03T04:00:16.654Z,88.05
2022-08-03T04:01:37.635Z,88.25
2022-08-03T04:02:16.914Z,88.66
2022-08-03T04:03:16.628Z,88.25
2022-08-03T04:04:16.631Z,87.85
2022-08-03T04:05:16.590Z,87.95
2022-08-03T04:06:34.916Z,87.85
2022-08-03T04:07:16.570Z,88.15
2022-08-03T04:08:16.547Z,88.15
2022-08-03T04:09:16.541Z,87.85
2022-08-03T04:10:16.521Z,87.74
2022-08-03T04:11:20.919Z,87.85
2022-08-03T04:12:16.759Z,87.85
2022-08-03T04:13:16.482Z,87.85
2022-08-03T04:14:16.472Z,87.74
2022-08-03T04:15:16.480Z,87.45
2022-08-03T04:16:35.011Z,87.14
2022-08-03T04:17:16.429Z,87.34
2022-08-03T04:18:16.402Z,87.65
2022-08-03T04:19:19.777Z,88.05
2022-08-03T04:20:16.389Z,88.35
2022-08-03T04:21:26.912Z,88.25
2022-08-03T04:22:16.684Z,88.35
2022-08-03T04:23:16.344Z,87.95
2022-08-03T04:24:16.340Z,88.05
2022-08-03T04:25:16.336Z,88.15
2022-08-03T04:26:22.410Z,88.15
2022-08-03T04:27:16.293Z,88.15
2022-08-03T04:28:31.071Z,88.51
2022-08-03T04:29:16.324Z,88.01
2022-08-03T04:30:16.255Z,87.40
2022-08-03T04:31:30.892Z,87.20
2022-08-03T04:32:16.627Z,88.11
2022-08-03T04:33:16.213Z,87.10
2022-08-03T04:34:16.194Z,86.59
2022-08-03T04:35:16.240Z,86.49
2022-08-03T04:36:22.899Z,86.79
2022-08-03T04:37:16.174Z,86.49
2022-08-03T04:38:16.137Z,87.00
2022-08-03T04:39:16.130Z,87.20
2022-08-03T04:40:16.137Z,87.10
2022-08-03T04:41:22.921Z,87.30
2022-08-03T04:42:16.081Z,87.40
2022-08-03T04:43:16.071Z,87.60
2022-08-03T04:44:16.058Z,87.60
2022-08-03T04:45:16.090Z,87.74
2022-08-03T04:46:37.040Z,87.45
2022-08-03T04:47:16.027Z,87.34
2022-08-03T04:48:16.000Z,87.40
2022-08-03T04:49:16.054Z,87.30
2022-08-03T04:50:20.898Z,87.40
2022-08-03T04:51:30.892Z,87.40
2022-08-03T04:52:16.300Z,87.30
2022-08-03T04:53:15.943Z,87.40
2022-08-03T04:54:15.921Z,87.30
2022-08-03T04:55:15.945Z,87.81
2022-08-03T04:56:22.895Z,87.51
2022-08-03T04:57:22.077Z,87.71
2022-08-03T04:58:15.906Z,88.11
2022-08-03T04:59:15.850Z,87.81
2022-08-03T05:00:15.853Z,87.51
2022-08-03T05:01:36.896Z,87.40
2022-08-03T05:02:16.036Z,87.81
2022-08-03T05:03:23.612Z,87.40
2022-08-03T05:04:15.796Z,87.60
2022-08-03T05:05:15.894Z,88.01
2022-08-03T05:06:30.397Z,87.81
2022-08-03T05:07:15.752Z,88.01
2022-08-03T05:08:15.788Z,87.91
2022-08-03T05:09:15.731Z,87.71
2022-08-03T05:10:16.772Z,87.51
2022-08-03T05:11:39.398Z,87.40
2022-08-03T05:12:15.835Z,88.01
2022-08-03T05:13:15.700Z,88.42
2022-08-03T05:14:15.654Z,88.21
2022-08-03T05:15:15.689Z,87.91
2022-08-03T05:16:22.403Z,88.72
2022-08-03T05:17:15.621Z,88.31
2022-08-03T05:18:15.633Z,88.42
2022-08-03T05:19:15.630Z,88.31
2022-08-03T05:20:16.575Z,88.72
2022-08-03T05:21:52.733Z,88.42
2022-08-03T05:22:15.738Z,88.42
2022-08-03T05:23:15.532Z,88.88
2022-08-03T05:24:15.558Z,89.08
2022-08-03T05:25:17.749Z,89.18
2022-08-03T05:26:22.399Z,89.48
2022-08-03T05:27:15.488Z,89.39
2022-08-03T05:28:15.509Z,89.28
2022-08-03T05:29:15.463Z,89.28
2022-08-03T05:30:31.710Z,89.89
2022-08-03T05:31:31.047Z,89.18
2022-08-03T05:32:15.429Z,89.14
2022-08-03T05:33:15.425Z,89.34
2022-08-03T05:34:15.387Z,88.84
2022-08-03T05:36:01.668Z,88.74
2022-08-03T05:36:29.909Z,88.64
2022-08-03T05:37:15.348Z,89.10
2022-08-03T05:38:15.372Z,88.90
2022-08-03T05:39:15.364Z,88.70
2022-08-03T05:40:15.300Z,88.09
2022-08-03T05:41:36.479Z,88.19
2022-08-03T05:42:15.481Z,88.19
2022-08-03T05:43:15.280Z,88.55
2022-08-03T05:44:15.273Z,88.45
2022-08-03T05:45:15.238Z,87.95
2022-08-03T05:46:26.019Z,87.95
2022-08-03T05:47:15.238Z,87.84
2022-08-03T05:48:15.203Z,88.35
2022-08-03T05:49:15.240Z,88.25
2022-08-03T05:50:15.165Z,88.21
2022-08-03T05:51:22.938Z,87.40
2022-08-03T05:52:15.658Z,87.50
2022-08-03T05:53:15.136Z,88.01
2022-08-03T05:54:15.152Z,88.41
2022-08-03T05:55:15.111Z,87.81
2022-08-03T05:56:34.485Z,87.46
2022-08-03T05:57:15.109Z,87.15
2022-08-03T05:58:15.061Z,87.26
2022-08-03T05:59:37.062Z,87.56
2022-08-03T06:00:15.082Z,87.26
2022-08-03T06:01:29.945Z,86.75
2022-08-03T06:02:15.223Z,87.01
2022-08-03T06:03:14.994Z,86.91
2022-08-03T06:04:14.980Z,86.71
2022-08-03T06:05:14.991Z,86.30
2022-08-03T06:06:32.296Z,86.47
2022-08-03T06:07:14.942Z,85.76
2022-08-03T06:08:15.362Z,85.66
2022-08-03T06:09:14.954Z,85.76
2022-08-03T06:10:37.579Z,85.36
2022-08-03T06:11:21.422Z,85.11
2022-08-03T06:12:15.469Z,85.11
2022-08-03T06:13:14.874Z,84.81
2022-08-03T06:14:14.877Z,85.02
2022-08-03T06:15:14.833Z,84.31
2022-08-03T06:16:29.425Z,84.47
2022-08-03T06:17:14.803Z,84.77
2022-08-03T06:18:14.835Z,84.57
2022-08-03T06:19:14.780Z,85.78
2022-08-03T06:20:14.763Z,85.88
2022-08-03T06:21:28.947Z,86.15
2022-08-03T06:22:15.116Z,85.54
2022-08-03T06:23:17.667Z,84.74
2022-08-03T06:24:14.710Z,83.59
2022-08-03T06:25:14.732Z,82.07
2022-08-03T06:26:29.424Z,81.87
2022-08-03T06:27:14.712Z,83.08
2022-08-03T06:28:42.512Z,83.14
2022-08-03T06:29:14.664Z,82.94
2022-08-03T06:30:19.288Z,82.74
2022-08-03T06:31:32.809Z,82.80
2022-08-03T06:32:14.916Z,83.20
2022-08-03T06:33:14.616Z,82.30
2022-08-03T06:34:32.354Z,81.79
2022-08-03T06:35:14.583Z,81.29
2022-08-03T06:36:29.444Z,82.26
2022-08-03T06:37:14.546Z,81.85
2022-08-03T06:38:14.527Z,81.65
2022-08-03T06:39:14.541Z,82.36
2022-08-03T06:40:14.504Z,81.85
2022-08-03T06:41:37.655Z,80.51
2022-08-03T06:42:14.668Z,80.01
2022-08-03T06:43:14.465Z,80.31
2022-08-03T06:44:14.475Z,80.71
2022-08-03T06:45:14.427Z,79.00
2022-08-03T06:46:28.951Z,79.47
2022-08-03T06:47:14.407Z,78.27
2022-08-03T06:48:14.398Z,78.56
2022-08-03T06:49:14.467Z,78.73
2022-08-03T06:50:16.926Z,77.42
2022-08-03T06:52:04.415Z,76.52
2022-08-03T06:52:42.836Z,76.68
2022-08-03T06:53:19.909Z,77.45
2022-08-03T06:54:14.340Z,75.34
2022-08-03T06:55:14.301Z,75.01
2022-08-03T06:56:28.931Z,74.10
2022-08-03T06:57:14.301Z,73.67
2022-08-03T06:58:14.256Z,73.16
2022-08-03T07:00:10.410Z,73.03
2022-08-03T07:00:16.633Z,72.53
2022-08-03T07:01:28.989Z,72.53
2022-08-03T07:02:18.292Z,71.73
2022-08-03T07:03:14.213Z,72.30
2022-08-03T07:04:14.188Z,72.60
2022-08-03T07:05:14.188Z,72.39
2022-08-03T07:06:28.940Z,72.60
2022-08-03T07:07:14.138Z,71.50
2022-08-03T07:11:40.675Z,72.60
2022-08-03T07:12:55.967Z,72.39
2022-08-03T07:13:41.666Z,71.59
2022-08-03T07:14:41.645Z,73.10
2022-08-03T07:15:55.616Z,72.19
2022-08-03T07:16:41.601Z,71.80
2022-08-03T07:17:41.576Z,72.00
2022-08-03T07:18:41.593Z,72.30
2022-08-03T07:19:41.541Z,71.96
2022-08-03T07:20:41.538Z,71.86
2022-08-03T07:21:41.557Z,71.96
2022-08-03T07:22:41.519Z,72.86
2022-08-03T07:23:41.510Z,72.06
2022-08-03T07:24:41.501Z,72.86
2022-08-03T07:25:41.475Z,72.36
2022-08-03T07:26:41.469Z,71.26
2022-08-03T07:27:41.456Z,71.16
2022-08-03T07:28:41.456Z,71.42
2022-08-03T07:29:41.412Z,71.53
2022-08-03T07:30:41.417Z,70.43
2022-08-03T07:31:41.389Z,70.43
2022-08-03T07:32:49.853Z,71.03
2022-08-03T07:33:41.401Z,71.33
2022-08-03T07:34:41.354Z,70.32
2022-08-03T07:35:41.346Z,69.79
2022-08-03T07:36:41.322Z,70.09
2022-08-03T07:37:41.325Z,70.69
2022-08-03T07:38:41.328Z,69.99
2022-08-03T07:39:41.269Z,69.49
2022-08-03T07:40:45.851Z,69.69
2022-08-03T07:41:41.364Z,68.79
2022-08-03T07:42:41.268Z,69.06
2022-08-03T07:43:41.227Z,69.16
2022-08-03T07:44:41.207Z,69.76
2022-08-03T07:45:41.198Z,69.36
2022-08-03T07:46:41.190Z,69.86
2022-08-03T07:47:41.213Z,70.46
2022-08-03T07:48:41.154Z,69.26
2022-08-03T07:49:41.300Z,68.52
2022-08-03T07:50:41.151Z,68.93
2022-08-03T07:51:41.106Z,68.82
2022-08-03T07:52:41.109Z,69.23
2022-08-03T07:53:41.395Z,69.13
2022-08-03T07:54:41.103Z,68.82
2022-08-03T07:55:41.057Z,69.43
2022-08-03T07:56:41.048Z,68.89
2022-08-03T07:57:41.058Z,67.40
2022-08-03T07:58:41.013Z,68.10
2022-08-03T07:59:57.248Z,68.49
2022-08-03T08:00:41.005Z,66.39
2022-08-03T08:01:41.055Z,67.49
2022-08-03T08:02:40.965Z,67.49
2022-08-03T08:03:53.074Z,68.56
2022-08-03T08:04:41.083Z,67.66
2022-08-03T08:05:40.931Z,67.36
2022-08-03T08:06:40.900Z,68.16
2022-08-03T08:07:40.917Z,68.36
2022-08-03T08:08:40.882Z,66.56
2022-08-03T08:09:40.855Z,66.06
2022-08-03T08:10:40.870Z,66.56
2022-08-03T08:11:40.863Z,66.43
2022-08-03T08:12:40.836Z,66.13
2022-08-03T08:13:40.819Z,65.64
2022-08-03T08:14:40.798Z,65.44
2022-08-03T08:15:42.613Z,66.73
2022-08-03T08:16:40.795Z,64.54
2022-08-03T08:17:40.755Z,64.90
2022-08-03T08:18:40.771Z,64.61
2022-08-03T08:19:43.857Z,64.81
2022-08-03T08:20:40.726Z,64.71
2022-08-03T08:22:02.041Z,64.51
2022-08-03T08:22:40.783Z,63.91
2022-08-03T08:23:43.544Z,64.11
2022-08-03T08:24:40.667Z,63.91
2022-08-03T08:25:40.659Z,63.81
2022-08-03T08:26:40.677Z,64.11
2022-08-03T08:28:29.233Z,64.07
2022-08-03T08:28:40.620Z,65.47
2022-08-03T08:29:52.569Z,66.47
2022-08-03T08:30:40.621Z,64.58
2022-08-03T08:31:40.594Z,63.88
2022-08-03T08:32:40.575Z,63.78
2022-08-03T08:34:40.542Z,63.88
2022-08-03T08:35:40.546Z,64.28
2022-08-03T08:36:40.535Z,64.84
2022-08-03T08:37:40.495Z,65.05
2022-08-03T08:38:40.504Z,64.94
2022-08-03T08:39:40.490Z,64.04
2022-08-03T08:40:40.458Z,65.84
2022-08-03T08:41:40.640Z,64.54
2022-08-03T08:42:51.898Z,63.32
2022-08-03T08:43:40.414Z,62.62
2022-08-03T08:44:40.423Z,64.61
2022-08-03T08:45:40.388Z,62.32
2022-08-03T08:46:40.431Z,62.23
2022-08-03T08:47:51.766Z,63.62
2022-08-03T08:48:40.354Z,61.90
2022-08-03T08:49:40.421Z,62.69
2022-08-03T08:50:40.312Z,62.40
2022-08-03T08:51:54.979Z,63.39
2022-08-03T08:52:40.298Z,64.09
2022-08-03T08:53:40.267Z,64.88
2022-08-03T08:54:40.282Z,65.28
2022-08-03T08:55:58.655Z,62.99
2022-08-03T08:56:40.232Z,65.68
2022-08-03T08:57:43.215Z,64.39
2022-08-03T08:58:40.203Z,64.15
2022-08-03T08:59:48.394Z,64.36
2022-08-03T09:00:40.187Z,64.06
2022-08-03T09:01:40.166Z,61.74
2022-08-03T09:02:40.146Z,62.53
2022-08-03T09:03:40.130Z,60.14
2022-08-03T09:04:40.117Z,61.74
2022-08-03T09:05:55.423Z,61.74
2022-08-03T09:06:40.099Z,61.64
2022-08-03T09:07:40.093Z,61.24
2022-08-03T09:08:40.071Z,62.23
2022-08-03T09:10:11.437Z,61.44
2022-08-03T09:10:40.053Z,60.82
2022-08-03T09:11:52.420Z,60.52
2022-08-03T09:12:42.222Z,60.71
2022-08-03T09:13:40.005Z,61.11
2022-08-03T09:14:54.841Z,62.21
2022-08-03T09:15:39.973Z,61.21
2022-08-03T09:16:40.005Z,59.59
2022-08-03T09:17:39.938Z,60.49
2022-08-03T09:18:39.952Z,59.17
2022-08-03T09:19:39.922Z,58.87
2022-08-03T09:20:39.908Z,58.87
2022-08-03T09:21:39.904Z,60.46
2022-08-03T09:22:39.875Z,60.36
2022-08-03T09:23:51.749Z,59.47
2022-08-03T09:24:41.842Z,60.96
2022-08-03T09:25:39.842Z,59.07
2022-08-03T09:26:39.845Z,60.85
2022-08-03T09:27:39.814Z,59.96
2022-08-03T09:28:59.894Z,59.56
2022-08-03T09:29:39.779Z,60.93
2022-08-03T09:30:39.808Z,60.33
2022-08-03T09:31:39.777Z,60.10
2022-08-03T09:32:39.744Z,57.20
2022-08-03T09:33:39.738Z,58.39
2022-08-03T09:34:39.723Z,58.56
2022-08-03T09:35:57.444Z,56.87
2022-08-03T09:36:39.698Z,56.57
2022-08-03T09:38:12.272Z,56.48
2022-08-03T09:38:39.669Z,57.17
2022-08-03T09:39:42.047Z,56.87
2022-08-03T09:40:39.672Z,56.65
2022-08-03T09:41:39.619Z,57.54
2022-08-03T09:42:39.618Z,55.76
2022-08-03T09:43:39.671Z,56.25
2022-08-03T09:44:39.588Z,57.34
2022-08-03T09:45:39.564Z,56.55
2022-08-03T09:46:39.573Z,55.85
2022-08-03T09:47:44.994Z,55.96
2022-08-03T09:48:39.538Z,55.04
2022-08-03T09:49:41.041Z,54.84
2022-08-03T09:50:39.504Z,55.93
2022-08-03T09:52:31.494Z,55.53
2022-08-03T09:52:51.812Z,53.95
2022-08-03T09:53:39.465Z,54.74
2022-08-03T09:54:39.451Z,54.94
2022-08-03T09:56:34.033Z,55.04
2022-08-03T09:56:41.134Z,54.05
2022-08-03T09:57:39.406Z,55.83
2022-08-03T09:58:39.401Z,53.06
2022-08-03T09:59:39.400Z,53.42
2022-08-03T10:00:39.434Z,52.91
2022-08-03T10:01:46.039Z,53.11
2022-08-03T10:02:39.430Z,54.59
2022-08-03T10:04:03.371Z,53.97
2022-08-03T10:04:39.320Z,53.38
2022-08-03T10:05:39.302Z,52.17
2022-08-03T10:06:39.289Z,51.99
2022-08-03T10:07:39.273Z,51.57
2022-08-03T10:08:39.300Z,53.45
2022-08-03T10:09:39.245Z,52.14
2022-08-03T10:10:39.242Z,51.15
2022-08-03T10:11:42.000Z,51.54
2022-08-03T10:12:39.240Z,50.66
2022-08-03T10:13:39.193Z,51.64
2022-08-03T10:14:39.187Z,51.45
2022-08-03T10:16:21.476Z,51.45
2022-08-03T10:16:39.205Z,52.46
2022-08-03T10:17:40.404Z,51.57
2022-08-03T10:18:39.128Z,51.67
2022-08-03T10:19:39.117Z,51.54
2022-08-03T10:20:39.099Z,51.94
2022-08-03T10:21:39.090Z,52.73
2022-08-03T10:22:39.096Z,53.03
2022-08-03T10:23:39.185Z,54.09
2022-08-03T10:24:39.096Z,51.42
2022-08-03T10:25:39.092Z,52.48
2022-08-03T10:26:39.038Z,49.92
2022-08-03T10:27:39.016Z,50.51
2022-08-03T10:28:44.308Z,49.99
2022-08-03T10:29:39.025Z,49.30
2022-08-03T10:30:38.976Z,49.69
2022-08-03T10:31:38.957Z,50.36
2022-08-03T10:32:38.950Z,50.07
2022-08-03T10:33:49.756Z,50.26
2022-08-03T10:34:43.983Z,48.17
2022-08-03T10:35:38.929Z,48.86
2022-08-03T10:36:38.887Z,49.52
2022-08-03T10:37:38.881Z,48.74
2022-08-03T10:38:38.888Z,49.23
2022-08-03T10:39:38.855Z,49.73
2022-08-03T10:40:48.505Z,49.30
2022-08-03T10:41:38.842Z,47.63
2022-08-03T10:42:38.837Z,47.53
2022-08-03T10:43:38.821Z,47.83
2022-08-03T10:44:38.798Z,47.83
2022-08-03T10:45:38.777Z,50.09
2022-08-03T10:46:44.131Z,48.82
2022-08-03T10:47:38.754Z,48.03
2022-08-03T10:48:38.726Z,48.61
2022-08-03T10:49:38.819Z,47.53
2022-08-03T10:50:38.705Z,47.80
2022-08-03T10:51:38.691Z,47.12
2022-08-03T10:52:41.702Z,48.27
2022-08-03T10:53:38.677Z,47.39
2022-08-03T10:54:38.655Z,47.09
2022-08-03T10:55:38.639Z,47.76
2022-08-03T10:56:49.877Z,46.97
2022-08-03T10:57:38.675Z,46.09
2022-08-03T10:58:53.451Z,45.99
2022-08-03T10:59:38.589Z,45.89
2022-08-03T11:00:38.651Z,46.38
2022-08-03T11:02:00.164Z,47.00
2022-08-03T11:02:38.552Z,46.90
2022-08-03T11:03:38.538Z,49.33
2022-08-03T11:04:38.537Z,48.45
2022-08-03T11:05:38.591Z,48.62
2022-08-03T11:06:38.496Z,46.95
2022-08-03T11:07:38.482Z,47.42
2022-08-03T11:08:38.495Z,45.95
2022-08-03T11:09:38.482Z,46.22
2022-08-03T11:10:38.441Z,45.92
2022-08-03T11:11:38.432Z,45.73
2022-08-03T11:12:38.415Z,45.24
2022-08-03T11:13:38.401Z,45.53
2022-08-03T11:14:38.406Z,45.04
2022-08-03T11:15:38.395Z,44.35
2022-08-03T11:16:38.378Z,44.43
2022-08-03T11:17:46.660Z,44.90
2022-08-03T11:18:38.382Z,43.33
2022-08-03T11:19:38.337Z,43.43
2022-08-03T11:20:38.312Z,43.33
2022-08-03T11:21:38.317Z,43.70
2022-08-03T11:22:38.289Z,43.51
2022-08-03T11:24:04.888Z,42.52
2022-08-03T11:24:38.267Z,43.90
2022-08-03T11:25:53.329Z,43.02
2022-08-03T11:26:38.238Z,43.09
2022-08-03T11:27:38.218Z,42.80
2022-08-03T11:28:38.227Z,42.90
2022-08-03T11:29:38.193Z,42.99
2022-08-03T11:30:38.202Z,40.25
2022-08-03T11:31:53.429Z,41.62
2022-08-03T11:32:38.282Z,41.31
2022-08-03T11:33:38.178Z,41.80
2022-08-03T11:34:38.131Z,41.89
2022-08-03T11:35:38.137Z,41.80
2022-08-03T11:36:53.063Z,41.80
2022-08-03T11:37:38.122Z,43.17
2022-08-03T11:38:38.075Z,41.09
2022-08-03T11:39:38.071Z,41.00
2022-08-03T11:40:38.075Z,39.72
2022-08-03T11:41:44.846Z,40.50
2022-08-03T11:42:38.035Z,40.31
2022-08-03T11:43:38.006Z,39.90
2022-08-03T11:44:38.033Z,40.39
2022-08-03T11:45:37.993Z,39.80
2022-08-03T11:46:38.000Z,39.22
2022-08-03T11:47:37.999Z,39.51
2022-08-03T11:48:37.965Z,40.00
2022-08-03T11:49:37.981Z,39.51
2022-08-03T11:50:37.918Z,39.51
2022-08-03T11:51:37.935Z,39.80
2022-08-03T11:52:37.906Z,40.56
2022-08-03T11:53:42.009Z,39.39
2022-08-03T11:54:37.889Z,39.10
2022-08-03T11:55:37.858Z,40.27
2022-08-03T11:56:37.852Z,39.69
2022-08-03T11:59:10.921Z,39.49
2022-08-03T11:59:25.644Z,38.90
2022-08-03T11:59:38.720Z,40.27
2022-08-03T12:00:37.827Z,38.61
2022-08-03T12:02:46.715Z,38.51
2022-08-03T12:03:47.726Z,38.02
2022-08-03T12:04:47.602Z,39.00
2022-08-03T12:05:51.909Z,38.61
2022-08-03T12:06:47.594Z,38.81
2022-08-03T12:08:04.316Z,37.34
2022-08-03T12:08:47.547Z,37.43
2022-08-03T12:09:47.537Z,38.02
2022-08-03T12:10:47.549Z,37.34
2022-08-03T12:11:50.961Z,39.69
2022-08-03T12:12:47.498Z,38.79
2022-08-03T12:14:44.034Z,37.32
2022-08-03T12:14:54.150Z,38.10
2022-08-03T12:15:47.450Z,38.28
2022-08-03T12:16:47.463Z,38.57
2022-08-03T12:17:47.477Z,39.06
2022-08-03T12:18:47.438Z,37.60
2022-08-03T12:19:47.429Z,36.91
2022-08-03T12:20:47.385Z,37.99
2022-08-03T12:21:56.555Z,38.09
2022-08-03T12:22:47.401Z,37.11
2022-08-03T12:23:47.376Z,36.91
2022-08-03T12:24:47.927Z,37.79
2022-08-03T12:25:47.322Z,38.48
2022-08-03T12:27:14.950Z,39.06
2022-08-03T12:27:47.309Z,37.70
2022-08-03T12:28:49.770Z,37.60
2022-08-03T12:29:57.310Z,37.60
2022-08-03T12:30:47.281Z,37.99
2022-08-03T12:31:47.297Z,37.87
2022-08-03T12:32:47.283Z,36.51
2022-08-03T12:33:47.260Z,36.99
2022-08-03T12:34:47.738Z,36.90
2022-08-03T12:35:52.352Z,36.41
2022-08-03T12:36:47.205Z,36.21
2022-08-03T12:37:47.195Z,35.90
2022-08-03T12:38:47.159Z,37.17
2022-08-03T12:40:02.822Z,36.68
2022-08-03T12:40:47.145Z,36.78
2022-08-03T12:41:47.125Z,35.41
2022-08-03T12:42:47.126Z,36.10
2022-08-03T12:43:47.104Z,35.71
2022-08-03T12:44:47.114Z,37.17
2022-08-03T12:45:47.102Z,36.58
2022-08-03T12:46:48.066Z,37.27
2022-08-03T12:47:47.083Z,37.85
2022-08-03T12:48:47.040Z,36.57
2022-08-03T12:49:47.055Z,36.86
2022-08-03T12:50:47.009Z,37.05
2022-08-03T12:52:22.943Z,36.66
2022-08-03T12:52:46.993Z,36.94
2022-08-03T12:53:46.976Z,35.86
2022-08-03T12:54:46.983Z,34.79
2022-08-03T12:55:57.285Z,35.28
2022-08-03T12:56:46.949Z,36.06
2022-08-03T12:57:46.938Z,37.13